Time,TemperatureF,DewpointF,PressureIn,WindDirection,WindDirectionDegrees,WindSpeedMPH,WindSpeedGustMPH,Humidity,HourlyPrecipIn,Conditions,Clouds,dailyrainin,SolarRadiationWatts/m^2,SoftwareType,DateUTC
2013-07-29 00:09:00,59.8,59.0,29.94,West,281,6.0,12.0,97,0.02,,,0.63,0,weatherlink.com 1.10,2013-07-29 04:09:00,
2013-07-29 00:24:00,59.5,59.0,29.94,West,261,7.0,11.0,97,0.00,,,0.63,0,weatherlink.com 1.10,2013-07-29 04:24:00,
2013-07-29 00:39:00,59.2,58.0,29.95,WNW,284,2.0,8.0,97,0.00,,,0.63,0,weatherlink.com 1.10,2013-07-29 04:39:00,
2013-07-29 00:54:00,58.9,58.0,29.95,West,266,0.0,0.0,97,0.00,,,0.63,0,weatherlink.com 1.10,2013-07-29 04:54:00,
2013-07-29 01:09:00,58.5,58.0,29.94,West,266,2.0,3.0,97,0.00,,,0.63,0,weatherlink.com 1.10,2013-07-29 05:09:00,
2013-07-29 01:24:00,58.2,57.0,29.95,West,266,2.0,3.0,97,0.00,,,0.63,0,weatherlink.com 1.10,2013-07-29 05:24:00,
2013-07-29 01:39:00,58.0,57.0,29.94,West,265,4.0,5.0,97,0.00,,,0.63,0,weatherlink.com 1.10,2013-07-29 05:39:00,
2013-07-29 01:54:00,57.8,57.0,29.95,West,267,0.0,4.0,97,0.00,,,0.63,0,weatherlink.com 1.10,2013-07-29 05:54:00,
2013-07-29 02:09:00,57.5,57.0,29.94,West,267,3.0,5.0,97,0.00,,,0.63,0,weatherlink.com 1.10,2013-07-29 06:09:00,
2013-07-29 02:24:00,57.6,57.0,29.94,West,267,0.0,3.0,98,0.00,,,0.63,0,weatherlink.com 1.10,2013-07-29 06:24:00,
2013-07-29 02:39:00,57.3,57.0,29.94,West,267,3.0,4.0,98,0.00,,,0.63,0,weatherlink.com 1.10,2013-07-29 06:39:00,
2013-07-29 02:54:00,57.4,57.0,29.95,West,267,0.0,4.0,98,0.00,,,0.63,0,weatherlink.com 1.10,2013-07-29 06:54:00,
2013-07-29 03:09:00,57.2,57.0,29.95,West,267,2.0,3.0,98,0.00,,,0.63,0,weatherlink.com 1.10,2013-07-29 07:09:00,
2013-07-29 03:24:00,57.0,57.0,29.95,West,267,2.0,4.0,98,0.00,,,0.00,0,weatherlink.com 1.10,2013-07-29 07:24:00,
2013-07-29 03:39:00,56.8,56.0,29.96,West,267,4.0,5.0,98,0.00,,,0.00,0,weatherlink.com 1.10,2013-07-29 07:39:00,
2013-07-29 03:54:00,56.6,56.0,29.96,West,267,3.0,4.0,98,0.01,,,0.01,0,weatherlink.com 1.10,2013-07-29 07:54:00,
2013-07-29 04:09:00,56.7,56.0,29.96,West,267,0.0,4.0,98,0.01,,,0.01,0,weatherlink.com 1.10,2013-07-29 08:09:00,
2013-07-29 04:24:00,55.9,55.0,29.96,West,265,2.0,3.0,97,0.01,,,0.01,0,weatherlink.com 1.10,2013-07-29 08:24:00,
2013-07-29 04:39:00,56.0,56.0,29.96,West,263,3.0,3.0,98,0.01,,,0.01,0,weatherlink.com 1.10,2013-07-29 08:39:00,
2013-07-29 04:54:00,56.2,56.0,29.96,West,265,3.0,6.0,98,0.00,,,0.01,0,weatherlink.com 1.10,2013-07-29 08:54:00,
2013-07-29 05:09:00,56.2,56.0,29.96,West,267,4.0,5.0,98,0.00,,,0.01,0,weatherlink.com 1.10,2013-07-29 09:09:00,
2013-07-29 05:24:00,56.6,56.0,29.97,WSW,257,4.0,6.0,98,0.00,,,0.01,0,weatherlink.com 1.10,2013-07-29 09:24:00,
2013-07-29 05:39:00,56.8,56.0,29.97,WSW,257,2.0,4.0,98,0.00,,,0.01,0,weatherlink.com 1.10,2013-07-29 09:39:00,
2013-07-29 05:54:00,56.5,56.0,29.97,West,264,3.0,5.0,97,0.00,,,0.01,0,weatherlink.com 1.10,2013-07-29 09:54:00,
2013-07-29 06:09:00,56.2,55.0,29.98,West,263,2.0,3.0,97,0.00,,,0.01,14,weatherlink.com 1.10,2013-07-29 10:09:00,
2013-07-29 06:24:00,56.6,56.0,29.98,WSW,254,0.0,6.0,98,0.00,,,0.01,26,weatherlink.com 1.10,2013-07-29 10:24:00,
2013-07-29 06:39:00,57.3,57.0,29.98,WSW,254,2.0,4.0,98,0.00,,,0.01,56,weatherlink.com 1.10,2013-07-29 10:39:00,
2013-07-29 06:54:00,58.2,58.0,29.98,WSW,254,0.0,3.0,98,0.00,,,0.01,83,weatherlink.com 1.10,2013-07-29 10:54:00,
2013-07-29 07:09:00,59.2,59.0,29.98,WSW,254,0.0,2.0,98,0.00,,,0.01,127,weatherlink.com 1.10,2013-07-29 11:09:00,
2013-07-29 07:24:00,60.5,60.0,29.98,WSW,253,0.0,3.0,98,0.00,,,0.01,172,weatherlink.com 1.10,2013-07-29 11:24:00,
2013-07-29 07:39:00,61.8,61.0,29.99,WSW,252,0.0,1.0,96,0.00,,,0.01,218,weatherlink.com 1.10,2013-07-29 11:39:00,
2013-07-29 07:55:00,62.4,61.0,29.99,SW,230,0.0,4.0,94,0.00,,,0.01,279,weatherlink.com 1.10,2013-07-29 11:55:00,
2013-07-29 08:10:00,63.3,62.0,29.99,SSE,167,1.0,3.0,94,0.00,,,0.01,336,weatherlink.com 1.10,2013-07-29 12:10:00,
2013-07-29 08:25:00,64.3,62.0,29.99,ESE,119,2.0,5.0,92,0.00,,,0.01,396,weatherlink.com 1.10,2013-07-29 12:25:00,
2013-07-29 08:40:00,63.5,61.0,30.00,SE,129,2.0,7.0,91,0.00,,,0.01,425,weatherlink.com 1.10,2013-07-29 12:40:00,
2013-07-29 08:55:00,63.8,62.0,29.99,SE,140,0.0,7.0,93,0.00,,,0.01,473,weatherlink.com 1.10,2013-07-29 12:55:00,
2013-07-29 09:25:00,65.9,63.0,30.00,SE,144,2.0,7.0,89,0.00,,,0.01,564,weatherlink.com 1.10,2013-07-29 13:25:00,
2013-07-29 09:40:00,66.9,63.0,30.00,SSW,200,3.0,7.0,87,0.00,,,0.01,612,weatherlink.com 1.10,2013-07-29 13:40:00,
2013-07-29 09:55:00,67.1,59.0,30.00,WSW,240,3.0,7.0,75,0.00,,,0.01,649,weatherlink.com 1.10,2013-07-29 13:55:00,
2013-07-29 10:10:00,67.6,59.0,30.00,SW,225,4.0,9.0,74,0.00,,,0.01,687,weatherlink.com 1.10,2013-07-29 14:10:00,
2013-07-29 10:25:00,68.4,62.0,30.00,WSW,242,5.0,8.0,79,0.00,,,0.01,807,weatherlink.com 1.10,2013-07-29 14:25:00,
2013-07-29 10:40:00,69.0,61.0,30.00,SSW,197,5.0,9.0,76,0.00,,,0.01,1009,weatherlink.com 1.10,2013-07-29 14:40:00,
2013-07-29 10:55:00,70.0,60.0,30.00,WNW,289,2.0,10.0,70,0.00,,,0.01,659,weatherlink.com 1.10,2013-07-29 14:55:00,
2013-07-29 11:10:00,68.8,59.0,30.00,SW,227,4.0,9.0,70,0.00,,,0.01,364,weatherlink.com 1.10,2013-07-29 15:10:00,
2013-07-29 11:25:00,68.9,59.0,30.00,SW,227,0.0,7.0,70,0.00,,,0.01,480,weatherlink.com 1.10,2013-07-29 15:25:00,
2013-07-29 11:40:00,69.6,59.0,30.00,SW,232,5.0,10.0,68,0.00,,,0.01,643,weatherlink.com 1.10,2013-07-29 15:40:00,
2013-07-29 12:10:00,69.5,61.0,30.00,West,279,3.0,10.0,73,0.00,,,0.01,360,weatherlink.com 1.10,2013-07-29 16:10:00,
2013-07-29 12:25:00,70.7,60.0,30.00,West,264,7.0,11.0,69,0.00,,,0.01,1062,weatherlink.com 1.10,2013-07-29 16:25:00,
2013-07-29 12:41:00,70.8,58.0,30.00,SW,218,2.0,7.0,65,0.00,,,0.01,1118,weatherlink.com 1.10,2013-07-29 16:41:00,
2013-07-29 12:56:00,70.4,59.0,30.00,WSW,244,3.0,8.0,68,0.00,,,0.01,255,weatherlink.com 1.10,2013-07-29 16:56:00,
2013-07-29 13:11:00,69.3,60.0,30.00,WSW,257,4.0,10.0,73,0.00,,,0.01,315,weatherlink.com 1.10,2013-07-29 17:11:00,
2013-07-29 13:26:00,69.5,58.0,30.00,West,265,5.0,9.0,67,0.00,,,0.01,120,weatherlink.com 1.10,2013-07-29 17:26:00,
2013-07-29 14:11:00,66.6,60.0,30.00,West,268,2.0,4.0,78,0.00,,,0.01,207,weatherlink.com 1.10,2013-07-29 18:11:00,
2013-07-29 14:41:00,67.0,59.0,30.00,West,265,2.0,5.0,75,0.00,,,0.01,171,weatherlink.com 1.10,2013-07-29 18:41:00,
2013-07-29 14:56:00,69.2,62.0,30.00,West,269,1.0,6.0,78,0.00,,,0.01,429,weatherlink.com 1.10,2013-07-29 18:56:00,
2013-07-29 15:11:00,69.8,59.0,30.00,West,276,0.0,6.0,69,0.00,,,0.01,315,weatherlink.com 1.10,2013-07-29 19:11:00,
2013-07-29 15:26:00,70.2,62.0,30.01,WNW,290,2.0,5.0,75,0.00,,,0.01,394,weatherlink.com 1.10,2013-07-29 19:26:00,
2013-07-29 15:56:00,68.8,57.0,30.01,West,278,2.0,10.0,67,0.00,,,0.01,257,weatherlink.com 1.10,2013-07-29 19:56:00,
2013-07-29 16:11:00,68.8,59.0,30.01,WSW,238,6.0,9.0,71,0.00,,,0.01,253,weatherlink.com 1.10,2013-07-29 20:11:00,
2013-07-29 16:26:00,68.8,59.0,30.01,WSW,250,12.0,12.0,71,0.00,,,0.01,315,weatherlink.com 1.10,2013-07-29 20:26:00,
2013-07-29 16:56:00,68.2,58.0,30.02,WSW,249,1.0,10.0,70,0.00,,,0.01,156,weatherlink.com 1.10,2013-07-29 20:56:00,
2013-07-29 17:11:00,67.9,58.0,30.02,WNW,283,8.0,10.0,71,0.00,,,0.01,220,weatherlink.com 1.10,2013-07-29 21:11:00,
2013-07-29 17:26:00,67.4,58.0,30.02,WNW,290,8.0,12.0,72,0.00,,,0.01,167,weatherlink.com 1.10,2013-07-29 21:26:00,
2013-07-29 17:41:00,66.7,56.0,30.02,WNW,287,6.0,12.0,69,0.00,,,0.01,141,weatherlink.com 1.10,2013-07-29 21:41:00,
2013-07-29 17:56:00,66.1,57.0,30.02,West,268,8.0,11.0,73,0.00,,,0.01,127,weatherlink.com 1.10,2013-07-29 21:56:00,
2013-07-29 18:26:00,65.7,57.0,30.02,WNW,298,6.0,9.0,74,0.00,,,0.01,111,weatherlink.com 1.10,2013-07-29 22:26:00,
2013-07-29 19:11:00,65.2,59.0,30.03,West,277,1.0,5.0,80,0.00,,,0.01,63,weatherlink.com 1.10,2013-07-29 23:11:00,
2013-07-29 19:41:00,64.4,58.0,30.05,WSW,254,0.0,3.0,80,0.00,,,0.01,28,weatherlink.com 1.10,2013-07-29 23:41:00,
2013-07-29 20:11:00,63.4,58.0,30.05,West,267,0.0,6.0,82,0.00,,,0.01,5,weatherlink.com 1.10,2013-07-30 00:11:00,
2013-07-29 20:41:00,62.8,57.0,30.05,WSW,250,4.0,8.0,82,0.00,,,0.01,0,weatherlink.com 1.10,2013-07-30 00:41:00,
2013-07-29 20:56:00,62.8,58.0,30.05,NW,305,3.0,8.0,84,0.00,,,0.01,0,weatherlink.com 1.10,2013-07-30 00:56:00,
2013-07-29 21:26:00,61.8,58.0,30.06,WSW,244,3.0,6.0,86,0.00,,,0.01,0,weatherlink.com 1.10,2013-07-30 01:26:00,
2013-07-29 21:41:00,60.9,57.0,30.07,WSW,244,0.0,4.0,87,0.00,,,0.01,0,weatherlink.com 1.10,2013-07-30 01:41:00,
2013-07-29 22:11:00,59.0,56.0,30.07,West,259,3.0,4.0,90,0.00,,,0.01,0,weatherlink.com 1.10,2013-07-30 02:11:00,
2013-07-29 22:26:00,58.6,56.0,30.07,WSW,250,3.0,5.0,90,0.00,,,0.01,0,weatherlink.com 1.10,2013-07-30 02:26:00,
2013-07-29 22:41:00,58.5,56.0,30.08,WSW,246,5.0,5.0,90,0.00,,,0.01,0,weatherlink.com 1.10,2013-07-30 02:41:00,
2013-07-29 22:56:00,58.3,55.0,30.07,WSW,251,4.0,6.0,89,0.00,,,0.01,0,weatherlink.com 1.10,2013-07-30 02:56:00,
2013-07-29 23:41:00,59.0,55.0,30.08,WSW,246,3.0,8.0,86,0.00,,,0.01,0,weatherlink.com 1.10,2013-07-30 03:41:00,
2013-07-29 23:56:00,59.0,55.0,30.08,SW,232,5.0,9.0,86,0.00,,,0.01,0,weatherlink.com 1.10,2013-07-30 03:56:00,